CheckWX is a tool to help pilots better visualize weather data.  It is not intended as a substitute for an official pre-flight weather briefing.

12:15:07 UTC

KMTJ METAR
Montrose Regional Airport
Montrose, Colorado, USA
Current

22 mins ago

KMTJ 241153Z AUTO 16005KT 10SM CLR 06/01 A3017 RMK AO2 SLP164 T00610011 10111 20061 55000
Observed
Jun-24 @ 11:53 UTC
Wind
  • 160° at 5 KTS
Visibility
10 SM
Flight Rules
VFR
Cloud Levels
  • Clear skies
Temperature
C / 43°F
Dewpoint
C / 34°F
Humidity
71%
Altimeter
30.17" Hg
Pressure
1021.72 hPa
Previous

1 hour ago

KMTJ 241053Z AUTO 15008KT 10SM CLR 08/01 A3016 RMK AO2 SLP161 T00780006
Observed
Jun-24 @ 10:53 UTC
Wind
  • 150° at 8 KTS
Visibility
10 SM
Flight Rules
VFR
Cloud Levels
  • Clear skies
Temperature
C / 46°F
Dewpoint
C / 34°F
Humidity
62%
Altimeter
30.16" Hg
Pressure
1021.32 hPa
Previous

2 hours ago

KMTJ 240953Z AUTO 16005KT 10SM CLR 07/02 A3016 RMK AO2 SLP163 T00720017
Observed
Jun-24 @ 09:53 UTC
Wind
  • 160° at 5 KTS
Visibility
10 SM
Flight Rules
VFR
Cloud Levels
  • Clear skies
Temperature
C / 45°F
Dewpoint
C / 36°F
Humidity
71%
Altimeter
30.16" Hg
Pressure
1021.32 hPa